Wetterdaten: aktuell Mittwoch, 23.10.2019 14:30
Datum Zeit Temp. A. Feuchte A. Luftdruck Regen Wind Richtung Richtung Taupunkt Windchill Windben Empfang
23.10.2019 14:30 14,8 C 83 % 1015,7 hPa 0,0 l/m 4,8 km/h (1 Bft) NO 44 11,9 C 14,8 C 18,5 km/h (3 Bft) 99 %
23.10.2019 14:20 14,7 C 84 % 1016,0 hPa 0,0 l/m 5,1 km/h (1 Bft) N-NO 27 12,0 C 14,7 C 20,6 km/h (4 Bft) 99 %
23.10.2019 14:10 14,6 C 85 % 1016,1 hPa 0,0 l/m 6,2 km/h (2 Bft) O 94 12,1 C 14,6 C 16,5 km/h (3 Bft) 97 %
23.10.2019 14:00 14,5 C 85 % 1016,2 hPa 0,0 l/m 5,1 km/h (1 Bft) O-NO 67 12,0 C 14,5 C 16,5 km/h (3 Bft) 99 %
23.10.2019 13:50 14,3 C 87 % 1016,2 hPa 0,0 l/m 6,4 km/h (2 Bft) O-NO 71 12,2 C 14,3 C 18,5 km/h (3 Bft) 100 %
23.10.2019 13:40 13,8 C 90 % 1016,3 hPa 0,0 l/m 5,2 km/h (1 Bft) O 80 12,2 C 13,8 C 14,4 km/h (3 Bft) 100 %
23.10.2019 13:30 13,3 C 91 % 1016,4 hPa 0,0 l/m 5,4 km/h (1 Bft) NO 52 11,9 C 13,3 C 16,5 km/h (3 Bft) 99 %
23.10.2019 13:20 13,0 C 92 % 1016,7 hPa 0,0 l/m 4,7 km/h (1 Bft) O 92 11,7 C 13,0 C 20,6 km/h (4 Bft) 99 %
23.10.2019 13:10 12,7 C 93 % 1016,8 hPa 0,0 l/m 6,3 km/h (2 Bft) SO 141 11,6 C 12,7 C 16,5 km/h (3 Bft) 99 %
23.10.2019 13:00 12,6 C 94 % 1016,7 hPa 0,0 l/m 6,2 km/h (2 Bft) SO 144 11,7 C 12,6 C 18,5 km/h (3 Bft) 99 %
23.10.2019 12:50 12,4 C 96 % 1017,1 hPa 0,0 l/m 5,1 km/h (1 Bft) O 84 11,8 C 12,4 C 16,5 km/h (3 Bft) 100 %
23.10.2019 12:40 12,4 C 96 % 1017,2 hPa 0,0 l/m 5,1 km/h (1 Bft) S-SO 168 11,8 C 12,4 C 14,4 km/h (3 Bft) 99 %
23.10.2019 12:30 12,2 C 97 % 1017,4 hPa 0,0 l/m 4,4 km/h (1 Bft) SO 130 11,7 C 12,2 C 14,4 km/h (3 Bft) 98 %
23.10.2019 12:20 12,0 C 97 % 1017,6 hPa 0,0 l/m 4,3 km/h (1 Bft) S-SO 152 11,5 C 12,0 C 14,4 km/h (3 Bft) 99 %
23.10.2019 12:10 11,8 C 97 % 1017,9 hPa 0,0 l/m 4,7 km/h (1 Bft) O-SO 123 11,3 C 11,8 C 16,5 km/h (3 Bft) 99 %
23.10.2019 12:00 11,8 C 97 % 1017,9 hPa 0,0 l/m 5,3 km/h (1 Bft) N-NO 17 11,3 C 11,8 C 18,5 km/h (3 Bft) 99 %
23.10.2019 11:50 11,7 C 97 % 1018,0 hPa 0,0 l/m 2,9 km/h (1 Bft) O-NO 67 11,2 C 11,7 C 10,3 km/h (2 Bft) 98 %
23.10.2019 11:40 11,6 C 97 % 1018,2 hPa 0,0 l/m 3,5 km/h (1 Bft) O-NO 75 11,1 C 11,6 C 12,4 km/h (3 Bft) 98 %
23.10.2019 11:30 11,5 C 97 % 1018,5 hPa 0,0 l/m 3,9 km/h (1 Bft) N-NO 22 11,0 C 11,5 C 14,4 km/h (3 Bft) 100 %
23.10.2019 11:20 11,3 C 97 % 1018,8 hPa 0,0 l/m 2,2 km/h (1 Bft) O 86 10,8 C 11,3 C 8,2 km/h (2 Bft) 99 %
23.10.2019 11:10 11,2 C 97 % 1019,0 hPa 0,0 l/m 3,4 km/h (1 Bft) O-SO 112 10,7 C 11,2 C 10,3 km/h (2 Bft) 99 %
23.10.2019 11:00 11,2 C 97 % 1019,0 hPa 0,0 l/m 2,8 km/h (1 Bft) O 97 10,7 C 11,2 C 8,2 km/h (2 Bft) 99 %
23.10.2019 10:50 11,1 C 97 % 1019,2 hPa 0,0 l/m 3,3 km/h (1 Bft) O-SO 109 10,6 C 11,1 C 10,3 km/h (2 Bft) 100 %
23.10.2019 10:40 10,9 C 97 % 1019,4 hPa 0,0 l/m 3,1 km/h (1 Bft) O 79 10,4 C 10,9 C 8,2 km/h (2 Bft) 98 %
23.10.2019 10:30 10,8 C 97 % 1019,4 hPa 0,0 l/m 2,8 km/h (1 Bft) NO 49 10,3 C 10,8 C 8,2 km/h (2 Bft) 100 %
23.10.2019 10:20 10,7 C 97 % 1019,5 hPa 0,0 l/m 4,2 km/h (1 Bft) O-SO 113 10,2 C 10,7 C 14,4 km/h (3 Bft) 98 %
23.10.2019 10:10 10,7 C 97 % 1019,6 hPa 0,0 l/m 3,6 km/h (1 Bft) O-SO 114 10,2 C 10,7 C 12,4 km/h (3 Bft) 99 %
23.10.2019 10:00 10,6 C 97 % 1019,6 hPa 0,0 l/m 2,0 km/h (1 Bft) O 92 10,1 C 10,6 C 6,2 km/h (2 Bft) 98 %
23.10.2019 09:50 10,4 C 97 % 1019,4 hPa 0,0 l/m 2,8 km/h (1 Bft) O-SO 105 9,9 C 10,4 C 14,4 km/h (3 Bft) 99 %
23.10.2019 09:40 10,3 C 97 % 1019,6 hPa 0,0 l/m 2,3 km/h (1 Bft) SO 125 9,8 C 10,3 C 8,2 km/h (2 Bft) 99 %
23.10.2019 09:30 10,2 C 97 % 1019,8 hPa 0,0 l/m 2,8 km/h (1 Bft) O-SO 119 9,7 C 10,2 C 6,2 km/h (2 Bft) 98 %
23.10.2019 09:20 10,1 C 97 % 1020,0 hPa 0,0 l/m 1,0 km/h (0 Bft) SO 132 9,6 C 10,1 C 6,2 km/h (2 Bft) 100 %
23.10.2019 09:10 9,9 C 97 % 1019,7 hPa 0,0 l/m 2,0 km/h (1 Bft) O 96 9,4 C 9,9 C 8,2 km/h (2 Bft) 99 %
23.10.2019 09:00 9,7 C 97 % 1020,1 hPa 0,0 l/m 0,3 km/h (0 Bft) O 92 9,2 C 9,7 C 4,1 km/h (1 Bft) 98 %
23.10.2019 08:50 9,6 C 97 % 1019,9 hPa 0,0 l/m 0,1 km/h (0 Bft) O 92 9,1 C 9,6 C 4,1 km/h (1 Bft) 98 %
23.10.2019 08:40 9,6 C 97 % 1019,8 hPa 0,0 l/m 0,6 km/h (0 Bft) O 92 9,1 C 9,6 C 6,2 km/h (2 Bft) 99 %
23.10.2019 08:30 9,5 C 97 % 1019,8 hPa 0,0 l/m 0,6 km/h (0 Bft) O 84 9,0 C 9,5 C 4,1 km/h (1 Bft) 99 %
23.10.2019 08:20 9,4 C 97 % 1019,8 hPa 0,0 l/m 0,5 km/h (0 Bft) O 90 8,9 C 9,4 C 6,2 km/h (2 Bft) 99 %
23.10.2019 08:10 9,3 C 97 % 1020,0 hPa 0,0 l/m 0,3 km/h (0 Bft) SO 132 8,8 C 9,3 C 4,1 km/h (1 Bft) 100 %
23.10.2019 08:00 9,1 C 97 % 1020,0 hPa 0,0 l/m 0,1 km/h (0 Bft) SO 132 8,6 C 9,1 C 4,1 km/h (1 Bft) 99 %
23.10.2019 07:50 8,9 C 97 % 1019,9 hPa 0,0 l/m 0,0 km/h (0 Bft) SO 132 8,4 C 8,9 C 0,0 km/h (0 Bft) 99 %
23.10.2019 07:40 8,8 C 97 % 1020,0 hPa 0,0 l/m 0,0 km/h (0 Bft) SO 132 8,4 C 8,8 C 0,0 km/h (0 Bft) 99 %
23.10.2019 07:30 8,7 C 97 % 1019,8 hPa 0,0 l/m 0,0 km/h (0 Bft) SO 132 8,3 C 8,7 C 0,0 km/h (0 Bft) 99 %
23.10.2019 07:20 8,7 C 97 % 1019,9 hPa 0,0 l/m 0,0 km/h (0 Bft) SO 132 8,3 C 8,7 C 2,1 km/h (1 Bft) 98 %
23.10.2019 07:10 8,6 C 97 % 1020,1 hPa 0,0 l/m 0,0 km/h (0 Bft) SO 132 8,2 C 8,6 C 0,0 km/h (0 Bft) 99 %
23.10.2019 07:00 8,5 C 97 % 1020,3 hPa 0,0 l/m 0,0 km/h (0 Bft) SO 132 8,1 C 8,5 C 0,0 km/h (0 Bft) 99 %
23.10.2019 06:50 8,3 C 97 % 1020,3 hPa 0,0 l/m 0,0 km/h (0 Bft) SO 132 7,9 C 8,3 C 0,0 km/h (0 Bft) 100 %
23.10.2019 06:40 8,2 C 96 % 1020,5 hPa 0,0 l/m 0,0 km/h (0 Bft) SO 132 7,6 C 8,2 C 0,0 km/h (0 Bft) 100 %
23.10.2019 06:30 8,1 C 96 % 1020,5 hPa 0,0 l/m 0,0 km/h (0 Bft) SO 132 7,5 C 8,1 C 0,0 km/h (0 Bft) 99 %
23.10.2019 06:20 8,1 C 96 % 1020,5 hPa 0,0 l/m 0,5 km/h (0 Bft) SO 132 7,5 C 8,1 C 6,2 km/h (2 Bft) 99 %
23.10.2019 06:10 8,1 C 96 % 1020,6 hPa 0,0 l/m 0,0 km/h (0 Bft) SO 132 7,5 C 8,1 C 2,1 km/h (1 Bft) 100 %
23.10.2019 06:00 8,1 C 96 % 1020,8 hPa 0,0 l/m 0,1 km/h (0 Bft) SO 132 7,5 C 8,1 C 2,1 km/h (1 Bft) 99 %
23.10.2019 05:50 8,2 C 96 % 1020,8 hPa 0,0 l/m 0,0 km/h (0 Bft) S 177 7,6 C 8,2 C 2,1 km/h (1 Bft) 99 %
23.10.2019 05:40 8,3 C 96 % 1020,8 hPa 0,0 l/m 0,1 km/h (0 Bft) S 177 7,7 C 8,3 C 2,1 km/h (1 Bft) 99 %
23.10.2019 05:30 8,4 C 96 % 1020,8 hPa 0,0 l/m 0,0 km/h (0 Bft) S 177 7,8 C 8,4 C 2,1 km/h (1 Bft) 100 %
23.10.2019 05:20 8,6 C 96 % 1021,2 hPa 0,0 l/m 0,2 km/h (0 Bft) S 177 8,0 C 8,6 C 6,2 km/h (2 Bft) 99 %
23.10.2019 05:10 8,8 C 96 % 1021,2 hPa 0,0 l/m 0,0 km/h (0 Bft) SW 235 8,2 C 8,8 C 0,0 km/h (0 Bft) 100 %
23.10.2019 05:00 8,9 C 96 % 1021,1 hPa 0,0 l/m 0,0 km/h (0 Bft) SW 235 8,3 C 8,9 C 0,0 km/h (0 Bft) 99 %
23.10.2019 04:50 8,9 C 95 % 1021,1 hPa 0,0 l/m 0,0 km/h (0 Bft) SW 235 8,1 C 8,9 C 0,0 km/h (0 Bft) 99 %
23.10.2019 04:40 9,2 C 95 % 1021,2 hPa 0,0 l/m 0,0 km/h (0 Bft) SW 235 8,4 C 9,2 C 0,0 km/h (0 Bft) 99 %
23.10.2019 04:30 9,3 C 95 % 1021,2 hPa 0,0 l/m 0,0 km/h (0 Bft) SW 235 8,5 C 9,3 C 0,0 km/h (0 Bft) 98 %
23.10.2019 04:20 9,6 C 95 % 1021,2 hPa 0,0 l/m 0,0 km/h (0 Bft) SW 235 8,8 C 9,6 C 0,0 km/h (0 Bft) 99 %
23.10.2019 04:10 9,8 C 95 % 1021,3 hPa 0,0 l/m 0,0 km/h (0 Bft) SW 235 9,0 C 9,8 C 0,0 km/h (0 Bft) 99 %
23.10.2019 04:00 10,0 C 95 % 1021,3 hPa 0,0 l/m 0,0 km/h (0 Bft) SW 235 9,2 C 10,0 C 0,0 km/h (0 Bft) 98 %
23.10.2019 03:50 10,2 C 95 % 1021,5 hPa 0,0 l/m 0,0 km/h (0 Bft) SW 235 9,4 C 10,2 C 0,0 km/h (0 Bft) 99 %
23.10.2019 03:40 10,4 C 95 % 1021,7 hPa 0,0 l/m 0,0 km/h (0 Bft) SW 235 9,6 C 10,4 C 0,0 km/h (0 Bft) 100 %
23.10.2019 03:30 10,6 C 96 % 1021,7 hPa 0,0 l/m 0,0 km/h (0 Bft) SW 235 10,0 C 10,6 C 0,0 km/h (0 Bft) 100 %
23.10.2019 03:20 10,7 C 96 % 1021,8 hPa 0,0 l/m 0,0 km/h (0 Bft) SW 235 10,1 C 10,7 C 0,0 km/h (0 Bft) 99 %
23.10.2019 03:10 10,8 C 96 % 1021,9 hPa 0,0 l/m 0,0 km/h (0 Bft) SW 235 10,2 C 10,8 C 2,1 km/h (1 Bft) 99 %
23.10.2019 03:00 10,7 C 96 % 1022,1 hPa 0,0 l/m 0,0 km/h (0 Bft) SW 235 10,1 C 10,7 C 0,0 km/h (0 Bft) 99 %
23.10.2019 02:50 10,7 C 96 % 1022,2 hPa 0,0 l/m 0,0 km/h (0 Bft) SW 235 10,1 C 10,7 C 0,0 km/h (0 Bft) 100 %
23.10.2019 02:40 10,7 C 95 % 1022,4 hPa 0,0 l/m 0,0 km/h (0 Bft) SW 235 9,9 C 10,7 C 0,0 km/h (0 Bft) 99 %
23.10.2019 02:30 10,6 C 95 % 1022,4 hPa 0,0 l/m 0,0 km/h (0 Bft) SW 235 9,8 C 10,6 C 0,0 km/h (0 Bft) 98 %
23.10.2019 02:20 10,8 C 95 % 1022,4 hPa 0,0 l/m 0,0 km/h (0 Bft) SW 235 10,0 C 10,8 C 0,0 km/h (0 Bft) 99 %
23.10.2019 02:10 11,1 C 95 % 1022,4 hPa 0,0 l/m 0,0 km/h (0 Bft) SW 235 10,3 C 11,1 C 0,0 km/h (0 Bft) 100 %
23.10.2019 02:00 11,3 C 95 % 1022,4 hPa 0,0 l/m 0,0 km/h (0 Bft) SW 235 10,5 C 11,3 C 0,0 km/h (0 Bft) 99 %
23.10.2019 01:50 11,4 C 95 % 1022,6 hPa 0,0 l/m 0,0 km/h (0 Bft) SW 235 10,6 C 11,4 C 0,0 km/h (0 Bft) 100 %
23.10.2019 01:40 11,6 C 95 % 1022,8 hPa 0,0 l/m 0,3 km/h (0 Bft) SW 235 10,8 C 11,6 C 4,1 km/h (1 Bft) 99 %
23.10.2019 01:30 11,7 C 95 % 1022,8 hPa 0,0 l/m 0,0 km/h (0 Bft) SW 235 10,9 C 11,7 C 0,0 km/h (0 Bft) 100 %
23.10.2019 01:20 11,8 C 95 % 1022,7 hPa 0,0 l/m 0,0 km/h (0 Bft) SW 235 11,0 C 11,8 C 0,0 km/h (0 Bft) 99 %
23.10.2019 01:10 11,9 C 95 % 1022,7 hPa 0,0 l/m 0,0 km/h (0 Bft) SW 235 11,1 C 11,9 C 0,0 km/h (0 Bft) 99 %
23.10.2019 01:00 11,9 C 95 % 1022,8 hPa 0,0 l/m 0,0 km/h (0 Bft) SW 235 11,1 C 11,9 C 0,0 km/h (0 Bft) 99 %
23.10.2019 00:50 11,9 C 95 % 1023,0 hPa 0,0 l/m 0,0 km/h (0 Bft) SW 235 11,1 C 11,9 C 0,0 km/h (0 Bft) 99 %
23.10.2019 00:40 11,9 C 95 % 1023,0 hPa 0,0 l/m 0,2 km/h (0 Bft) SW 235 11,1 C 11,9 C 6,2 km/h (2 Bft) 100 %
23.10.2019 00:30 12,0 C 95 % 1023,1 hPa 0,0 l/m 0,0 km/h (0 Bft) SW 236 11,2 C 12,0 C 2,1 km/h (1 Bft) 99 %
23.10.2019 00:20 11,9 C 95 % 1023,0 hPa 0,0 l/m 0,4 km/h (0 Bft) W-SW 238 11,1 C 11,9 C 4,1 km/h (1 Bft) 99 %
23.10.2019 00:10 12,0 C 95 % 1023,1 hPa 0,0 l/m 3,2 km/h (1 Bft) SW 215 11,2 C 12,0 C 8,2 km/h (2 Bft) 97 %
23.10.2019 00:00 12,0 C 95 % 1023,0 hPa 0,0 l/m 4,0 km/h (1 Bft) S-SW 208 11,2 C 12,0 C 10,3 km/h (2 Bft) 100 %
22.10.2019 23:50 11,9 C 95 % 1023,0 hPa 0,0 l/m 2,2 km/h (1 Bft) S 186 11,1 C 11,9 C 10,3 km/h (2 Bft) 99 %
22.10.2019 23:40 11,8 C 95 % 1023,0 hPa 0,0 l/m 0,7 km/h (0 Bft) S-SW 196 11,0 C 11,8 C 6,2 km/h (2 Bft) 98 %
22.10.2019 23:30 11,7 C 95 % 1023,1 hPa 0,0 l/m 1,4 km/h (1 Bft) S-SW 196 10,9 C 11,7 C 6,2 km/h (2 Bft) 100 %
22.10.2019 23:20 11,6 C 94 % 1023,0 hPa 0,0 l/m 1,3 km/h (1 Bft) S-SW 196 10,7 C 11,6 C 6,2 km/h (2 Bft) 99 %
22.10.2019 23:10 11,6 C 94 % 1022,9 hPa 0,0 l/m 1,5 km/h (1 Bft) S-SW 196 10,7 C 11,6 C 6,2 km/h (2 Bft) 98 %
22.10.2019 23:00 11,7 C 93 % 1022,7 hPa 0,0 l/m 0,1 km/h (0 Bft) S-SW 192 10,6 C 11,7 C 2,1 km/h (1 Bft) 100 %
22.10.2019 22:50 11,9 C 93 % 1022,8 hPa 0,0 l/m 0,8 km/h (0 Bft) S-SW 192 10,8 C 11,9 C 6,2 km/h (2 Bft) 99 %
22.10.2019 22:40 12,1 C 93 % 1022,8 hPa 0,0 l/m 4,2 km/h (1 Bft) S-SW 211 11,0 C 12,1 C 10,3 km/h (2 Bft) 97 %
22.10.2019 22:30 12,3 C 93 % 1022,9 hPa 0,0 l/m 5,4 km/h (1 Bft) S 185 11,2 C 12,3 C 12,4 km/h (3 Bft) 100 %
22.10.2019 22:24 12,4 C 93 % 1023,0 hPa 0,0 l/m 5,6 km/h (1 Bft) S 169 11,3 C 12,4 C 8,2 km/h (2 Bft) 100 %
22.10.2019 22:23 12,4 C 93 % 1022,9 hPa 0,0 l/m 6,6 km/h (2 Bft) S 186 11,3 C 12,4 C 12,4 km/h (3 Bft) 99 %
22.10.2019 22:10 12,7 C 92 % 1023,1 hPa 0,0 l/m 6,5 km/h (2 Bft) S-SW 196 11,4 C 12,7 C 14,4 km/h (3 Bft) 100 %
22.10.2019 22:00 12,7 C 93 % 1023,1 hPa 0,0 l/m 5,7 km/h (1 Bft) S-SW 206 11,6 C 12,7 C 16,5 km/h (3 Bft) 100 %
22.10.2019 21:50 12,7 C 93 % 1023,1 hPa 0,0 l/m 7,7 km/h (2 Bft) S-SW 196 11,6 C 12,7 C 16,5 km/h (3 Bft) 99 %
22.10.2019 21:40 12,7 C 93 % 1023,0 hPa 0,0 l/m 5,6 km/h (1 Bft) S 188 11,6 C 12,7 C 12,4 km/h (3 Bft) 99 %
22.10.2019 21:30 12,7 C 93 % 1023,1 hPa 0,0 l/m 5,2 km/h (1 Bft) S 182 11,6 C 12,7 C 14,4 km/h (3 Bft) 100 %
22.10.2019 21:20 12,8 C 93 % 1023,1 hPa 0,0 l/m 4,5 km/h (1 Bft) S-SW 203 11,7 C 12,8 C 12,4 km/h (3 Bft) 99 %
22.10.2019 21:10 12,8 C 93 % 1023,1 hPa 0,0 l/m 4,1 km/h (1 Bft) S 186 11,7 C 12,8 C 8,2 km/h (2 Bft) 100 %
22.10.2019 21:00 12,9 C 93 % 1023,1 hPa 0,0 l/m 4,2 km/h (1 Bft) SW 218 11,8 C 12,9 C 12,4 km/h (3 Bft) 99 %
22.10.2019 20:50 12,9 C 92 % 1023,0 hPa 0,0 l/m 1,4 km/h (1 Bft) S 186 11,6 C 12,9 C 8,2 km/h (2 Bft) 99 %
22.10.2019 20:40 13,0 C 92 % 1023,0 hPa 0,0 l/m 3,3 km/h (1 Bft) S 191 11,7 C 13,0 C 12,4 km/h (3 Bft) 99 %
22.10.2019 20:30 13,1 C 92 % 1023,0 hPa 0,0 l/m 1,7 km/h (1 Bft) S 173 11,8 C 13,1 C 8,2 km/h (2 Bft) 99 %
22.10.2019 20:20 13,1 C 92 % 1023,1 hPa 0,0 l/m 2,1 km/h (1 Bft) S 185 11,8 C 13,1 C 8,2 km/h (2 Bft) 100 %
22.10.2019 20:10 13,2 C 91 % 1023,1 hPa 0,0 l/m 3,7 km/h (1 Bft) S 171 11,8 C 13,2 C 10,3 km/h (2 Bft) 99 %
22.10.2019 20:00 13,3 C 91 % 1023,0 hPa 0,0 l/m 2,5 km/h (1 Bft) S 186 11,9 C 13,3 C 6,2 km/h (2 Bft) 100 %
22.10.2019 19:50 13,3 C 91 % 1023,0 hPa 0,0 l/m 2,1 km/h (1 Bft) S 178 11,9 C 13,3 C 8,2 km/h (2 Bft) 100 %
22.10.2019 19:40 13,3 C 91 % 1023,0 hPa 0,0 l/m 3,7 km/h (1 Bft) S 169 11,9 C 13,3 C 8,2 km/h (2 Bft) 99 %
22.10.2019 19:30 13,4 C 91 % 1023,1 hPa 0,0 l/m 2,1 km/h (1 Bft) S 183 12,0 C 13,4 C 6,2 km/h (2 Bft) 98 %
22.10.2019 19:20 13,4 C 90 % 1023,1 hPa 0,0 l/m 2,0 km/h (1 Bft) S 183 11,8 C 13,4 C 8,2 km/h (2 Bft) 100 %
22.10.2019 19:10 13,6 C 90 % 1023,1 hPa 0,0 l/m 1,6 km/h (1 Bft) S-SO 167 12,0 C 13,6 C 12,4 km/h (3 Bft) 98 %
22.10.2019 19:00 13,6 C 90 % 1023,0 hPa 0,0 l/m 1,3 km/h (1 Bft) S-SW 198 12,0 C 13,6 C 6,2 km/h (2 Bft) 99 %
22.10.2019 18:50 13,7 C 90 % 1023,0 hPa 0,0 l/m 2,0 km/h (1 Bft) S-SW 198 12,1 C 13,7 C 10,3 km/h (2 Bft) 100 %
22.10.2019 18:40 13,8 C 89 % 1023,0 hPa 0,0 l/m 3,7 km/h (1 Bft) S 190 12,0 C 13,8 C 8,2 km/h (2 Bft) 98 %
22.10.2019 18:30 13,8 C 89 % 1023,0 hPa 0,0 l/m 5,0 km/h (1 Bft) S 182 12,0 C 13,8 C 12,4 km/h (3 Bft) 100 %
22.10.2019 18:20 13,9 C 89 % 1023,1 hPa 0,0 l/m 5,1 km/h (1 Bft) S-SW 192 12,1 C 13,9 C 12,4 km/h (3 Bft) 100 %
22.10.2019 18:10 14,1 C 88 % 1023,0 hPa 0,0 l/m 3,6 km/h (1 Bft) S-SW 196 12,1 C 14,1 C 10,3 km/h (2 Bft) 100 %
22.10.2019 18:00 14,1 C 88 % 1023,0 hPa 0,0 l/m 5,4 km/h (1 Bft) S-SW 193 12,1 C 14,1 C 14,4 km/h (3 Bft) 100 %
22.10.2019 17:50 14,2 C 87 % 1023,0 hPa 0,0 l/m 5,9 km/h (2 Bft) S 189 12,1 C 14,2 C 14,4 km/h (3 Bft) 99 %
22.10.2019 17:40 14,3 C 86 % 1023,0 hPa 0,0 l/m 4,8 km/h (1 Bft) S-SW 204 12,0 C 14,3 C 10,3 km/h (2 Bft) 99 %
22.10.2019 17:30 14,5 C 86 % 1022,8 hPa 0,0 l/m 5,6 km/h (1 Bft) S-SW 196 12,2 C 14,5 C 12,4 km/h (3 Bft) 100 %
22.10.2019 17:20 14,7 C 85 % 1022,7 hPa 0,0 l/m 5,8 km/h (2 Bft) S-SW 206 12,2 C 14,7 C 12,4 km/h (3 Bft) 100 %
22.10.2019 17:10 14,8 C 84 % 1022,6 hPa 0,0 l/m 6,6 km/h (2 Bft) S-SO 162 12,1 C 14,8 C 16,5 km/h (3 Bft) 99 %
22.10.2019 17:00 15,0 C 84 % 1022,6 hPa 0,0 l/m 4,9 km/h (1 Bft) S 190 12,3 C 15,0 C 8,2 km/h (2 Bft) 99 %
22.10.2019 16:50 15,0 C 83 % 1022,5 hPa 0,0 l/m 4,0 km/h (1 Bft) S-SW 204 12,1 C 15,0 C 10,3 km/h (2 Bft) 99 %
22.10.2019 16:40 15,3 C 82 % 1022,5 hPa 0,0 l/m 5,9 km/h (2 Bft) W-SW 247 12,2 C 15,3 C 12,4 km/h (3 Bft) 100 %
22.10.2019 16:30 15,3 C 82 % 1022,4 hPa 0,0 l/m 6,9 km/h (2 Bft) S 188 12,2 C 15,3 C 14,4 km/h (3 Bft) 99 %
22.10.2019 16:20 15,1 C 83 % 1022,4 hPa 0,0 l/m 6,8 km/h (2 Bft) S-SW 192 12,2 C 15,1 C 18,5 km/h (3 Bft) 98 %
22.10.2019 16:10 15,1 C 83 % 1022,6 hPa 0,0 l/m 6,8 km/h (2 Bft) S-SW 196 12,2 C 15,1 C 14,4 km/h (3 Bft) 99 %
22.10.2019 16:00 15,3 C 82 % 1022,7 hPa 0,0 l/m 9,3 km/h (2 Bft) S-SW 212 12,2 C 15,3 C 18,5 km/h (3 Bft) 99 %
22.10.2019 15:50 15,2 C 83 % 1022,6 hPa 0,0 l/m 7,8 km/h (2 Bft) SW 221 12,3 C 15,2 C 18,5 km/h (3 Bft) 98 %
22.10.2019 15:40 14,6 C 85 % 1022,7 hPa 0,0 l/m 7,2 km/h (2 Bft) S-SW 206 12,1 C 14,6 C 14,4 km/h (3 Bft) 99 %
22.10.2019 15:30 14,6 C 84 % 1022,9 hPa 0,0 l/m 7,5 km/h (2 Bft) SW 214 11,9 C 14,6 C 16,5 km/h (3 Bft) 100 %
22.10.2019 15:20 14,6 C 86 % 1023,1 hPa 0,0 l/m 6,5 km/h (2 Bft) S-SW 194 12,3 C 14,6 C 14,4 km/h (3 Bft) 98 %
22.10.2019 15:10 14,3 C 86 % 1023,0 hPa 0,0 l/m 8,1 km/h (2 Bft) S 183 12,0 C 14,3 C 16,5 km/h (3 Bft) 100 %
22.10.2019 15:00 14,2 C 87 % 1023,0 hPa 0,0 l/m 5,7 km/h (1 Bft) S 190 12,1 C 14,2 C 12,4 km/h (3 Bft) 99 %
_ Min-Zeit 06:00 16:00 14:30 - 00:30 - - 06:00 06:00 00:50 00:10
Minimum _ 8,1 C 82 % 1015,7 hPa - 0,0 km/h (0 Bft) - - 7,5 C 8,1 C 0,0 km/h (0 Bft) 97 %
_ Max-Zeit 16:00 06:50 15:20 15:00 16:00 - - 15:50 16:00 13:20 15:10
Maximum _ 15,4 C 97 % 1023,1 hPa 0,0 l/m 9,3 km/h
S-SW (2 Bft)
- - 12,3 C 15,3 C 20,6 km/h
O-SO (4 Bft)
100 %
Durchschnitt _ 11,9 C 93 % 1021,3 hPa #0,0 l/m 2,9 km/h (1 Bft) SW - 10,7 C 11,9 C 8,4 km/h (2 Bft) 99 %